This is the latest recevied weather packets stored in our database for station/object OE3UKW. If no packets are shown the sender has not sent any weather packets the latest 10 day(s).
| Time | Temp. | Humidity | Pressure | Rain* | Wind** | Luminosity | Snow |
|---|---|---|---|---|---|---|---|
| 1777664473 | 11.11° C | 46% | 1026.1 hPa | 0 mm | - | 0 W/m² | - |
| 1777663872 | 11.67° C | 46% | 1026.2 hPa | 0 mm | - | 0 W/m² | - |
| 1777663272 | 12.22° C | 44% | 1026.1 hPa | 0 mm | - | 0 W/m² | - |
| 1777662672 | 12.78° C | 43% | 1026.1 hPa | 0 mm | - | 0 W/m² | - |
| 1777662072 | 13.33° C | 41% | 1026 hPa | 0 mm | - | 0 W/m² | - |
| 1777661472 | 13.89° C | 41% | 1026 hPa | 0 mm | - | 0 W/m² | - |
| 1777660872 | 15° C | 38% | 1026 hPa | 0 mm | - | 0 W/m² | - |
| 1777660272 | 15.56° C | 37% | 1026 hPa | 0 mm | - | 0 W/m² | - |
| 1777659672 | 16.67° C | 37% | 1025.8 hPa | 0 mm | - | 0 W/m² | - |
| 1777659072 | 17.78° C | 34% | 1025.7 hPa | 0 mm | - | 0 W/m² | - |
| 1777658472 | 18.33° C | 31% | 1025.8 hPa | 0 mm | - | 7 W/m² | - |
| 1777657872 | 19.44° C | 30% | 1025.7 hPa | 0 mm | - | 14 W/m² | - |
| 1777656672 | 20° C | 25% | 1025.7 hPa | 0 mm | - | 26 W/m² | - |
| 1777656072 | 20° C | 25% | 1025.7 hPa | 0 mm | - | 28 W/m² | - |
| 1777655472 | 20.56° C | 24% | 1025.7 hPa | 0 mm | - | 30 W/m² | - |
| 1777654872 | 20.56° C | 24% | 1025.6 hPa | 0 mm | - | 36 W/m² | - |
| 1777654272 | 20.56° C | 24% | 1025.6 hPa | 0 mm | - | 47 W/m² | - |
| 1777653672 | 21.11° C | 23% | 1025.6 hPa | 0 mm | - | 46 W/m² | - |
| 1777653072 | 21.11° C | 24% | 1025.6 hPa | 0 mm | - | 213 W/m² | - |
| 1777652472 | 21.11° C | 24% | 1025.8 hPa | 0 mm | - | 257 W/m² | - |
| 1777651872 | 21.11° C | 25% | 1025.8 hPa | 0 mm | - | 270 W/m² | - |
| 1777651272 | 21.11° C | 25% | 1025.8 hPa | 0 mm | - | 305 W/m² | - |
| 1777650672 | 21.11° C | 25% | 1025.8 hPa | 0 mm | - | 76 W/m² | - |
| 1777650072 | 21.11° C | 25% | 1026 hPa | 0 mm | - | 300 W/m² | - |
| 1777649472 | 21.67° C | 24% | 1026.1 hPa | 0 mm | - | 413 W/m² | - |
* Rain latest hour (hover to see other rain measurements)
** Current wind speed in m/s (hover to see current wind gust speed)